Time;durP1;ratioP1;P1;durP2;ratioP2;P2;SDS_P1;SDS_P2;PMS_P1;PMS_P2;Temp;Humidity;BMP_temperature;BMP_pressure;BME280_temperature;BME280_humidity;BME280_pressure;Samples;Min_cycle;Max_cycle;Signal;HPM_P1;HPM_P2
2023/02/21 02:13:52;;;;;;;65.63;28.02;;;;;;;6.91;93.22;100655.47;10137685;29;20044;-79
2023/02/21 02:19:20;;;;;;;87.05;39.30;;;;;;;7.24;91.49;100664.09;10144248;29;20052;-79
2023/02/21 02:24:50;;;;;;;89.78;34.22;;;;;;;6.97;92.41;100658.66;10146602;29;20412;-82
2023/02/21 02:30:30;;;;;;;99.05;43.60;;;;;;;7.30;90.62;100664.66;10171707;29;20067;-79
2023/02/21 02:35:38;;;;;;;87.82;33.90;;;;;;;7.21;90.90;100655.38;10175087;29;20111;-79
2023/02/21 02:40:58;;;;;;;96.72;37.88;;;;;;;7.11;91.65;100654.25;10168994;29;20044;-80
2023/02/21 02:46:08;;;;;;;91.78;31.80;;;;;;;7.13;91.30;100655.88;10157947;29;20542;-82
2023/02/21 02:51:15;;;;;;;99.90;42.22;;;;;;;7.10;90.88;100658.72;10137399;29;20108;-81
2023/02/21 02:56:22;;;;;;;93.32;42.05;;;;;;;7.33;90.20;100649.28;10171686;29;20512;-79
2023/02/21 03:01:52;;;;;;;88.72;39.38;;;;;;;6.85;92.35;100654.00;10175289;29;20531;-82
2023/02/21 03:07:04;;;;;;;105.47;38.95;;;;;;;6.97;92.40;100666.66;10138530;29;20464;-82
2023/02/21 03:12:16;;;;;;;76.45;30.05;;;;;;;6.93;91.98;100672.28;10139196;29;20062;-81
2023/02/21 03:17:24;;;;;;;92.20;43.72;;;;;;;6.95;91.91;100673.03;10137302;29;20051;-80
2023/02/21 03:22:30;;;;;;;86.32;37.78;;;;;;;7.15;90.93;100675.31;10174824;29;20047;-81
2023/02/21 03:27:35;;;;;;;85.05;38.33;;;;;;;6.99;90.92;100682.56;10167524;29;20051;-80
2023/02/21 03:32:50;;;;;;;93.53;39.72;;;;;;;7.08;91.77;100687.38;10159456;29;20055;-80
2023/02/21 03:37:57;;;;;;;76.53;34.22;;;;;;;7.11;91.28;100689.00;10170483;29;20052;-81
2023/02/21 03:43:05;;;;;;;81.65;35.15;;;;;;;7.01;92.22;100692.22;10170243;29;20096;-81
2023/02/21 03:48:16;;;;;;;78.57;31.95;;;;;;;6.92;92.02;100690.13;10174662;29;20095;-80
2023/02/21 03:53:36;;;;;;;68.05;30.10;;;;;;;7.00;92.00;100681.63;10174384;29;20048;-80
2023/02/21 03:58:41;;;;;;;59.45;25.88;;;;;;;6.77;93.74;100667.81;10159232;29;20548;-81
2023/02/21 04:03:44;;;;;;;93.85;36.45;;;;;;;7.05;91.89;100674.22;10174426;29;20044;-80
2023/02/21 04:08:50;;;;;;;92.03;35.28;;;;;;;6.76;94.15;100682.13;10165902;29;20432;-80
2023/02/21 04:13:55;;;;;;;102.03;39.80;;;;;;;6.90;93.28;100667.97;10182657;23;20056;-79
2023/02/21 04:18:58;;;;;;;64.78;28.15;;;;;;;6.58;94.69;100664.53;10176452;29;20094;-79
2023/02/21 04:24:03;;;;;;;94.38;36.67;;;;;;;6.83;93.41;100672.81;10179787;29;20059;-80
2023/02/21 04:29:08;;;;;;;103.22;42.20;;;;;;;7.24;91.05;100676.56;10171759;29;20050;-79
2023/02/21 04:34:11;;;;;;;114.72;40.65;;;;;;;7.07;91.89;100672.28;10173153;29;20062;-79
2023/02/21 04:39:19;;;;;;;106.47;44.70;;;;;;;6.63;94.21;100671.31;10178129;29;20075;-79
2023/02/21 04:44:23;;;;;;;95.43;37.95;;;;;;;6.74;93.90;100680.50;10172110;29;20051;-80
2023/02/21 04:49:26;;;;;;;118.88;47.05;;;;;;;7.19;92.15;100665.34;10195210;29;20052;-79
2023/02/21 04:54:30;;;;;;;99.35;36.60;;;;;;;7.09;91.26;100662.34;10177724;29;20052;-80
2023/02/21 04:59:33;;;;;;;109.05;43.22;;;;;;;6.90;92.59;100662.63;10177413;29;20435;-79
2023/02/21 05:04:36;;;;;;;107.70;42.80;;;;;;;7.02;92.59;100656.56;10186660;29;20047;-78
2023/02/21 05:09:40;;;;;;;71.68;29.35;;;;;;;6.94;92.58;100647.28;10199120;29;20107;-79
2023/02/21 05:14:43;;;;;;;97.63;42.38;;;;;;;6.98;92.47;100644.31;10221341;29;20048;-79
2023/02/21 05:19:46;;;;;;;88.13;34.35;;;;;;;6.92;92.05;100643.84;10185120;29;20062;-80
2023/02/21 05:24:50;;;;;;;90.43;33.20;;;;;;;6.94;92.95;100639.25;10181509;29;20045;-79
2023/02/21 05:29:53;;;;;;;111.20;43.17;;;;;;;7.02;92.74;100636.97;10180453;29;20239;-78
2023/02/21 05:34:57;;;;;;;94.70;36.67;;;;;;;6.89;93.05;100631.56;10175392;29;20072;-79
2023/02/21 05:40:01;;;;;;;110.97;43.22;;;;;;;7.17;91.80;100633.34;10178468;29;20423;-79
2023/02/21 05:45:05;;;;;;;115.07;42.28;;;;;;;6.94;93.05;100625.91;10173194;29;20532;-79
2023/02/21 05:50:08;;;;;;;106.30;40.22;;;;;;;7.14;91.87;100636.22;10180497;29;20044;-79
2023/02/21 05:55:13;;;;;;;108.07;36.58;;;;;;;7.22;90.73;100644.63;10180769;29;20120;-78
2023/02/21 06:00:17;;;;;;;98.53;39.78;;;;;;;6.51;94.99;100656.06;10172094;29;20136;-79
2023/02/21 06:05:21;;;;;;;115.75;40.95;;;;;;;6.89;93.42;100644.91;10173626;29;20055;-79
2023/02/21 06:10:25;;;;;;;134.73;46.55;;;;;;;6.95;92.62;100632.97;10174739;29;20052;-79
2023/02/21 06:15:28;;;;;;;122.50;41.85;;;;;;;6.74;94.52;100641.31;10192243;29;20092;-79
2023/02/21 06:20:30;;;;;;;109.55;40.38;;;;;;;6.56;95.42;100637.09;10180763;29;20043;-80
2023/02/21 06:25:35;;;;;;;125.05;47.83;;;;;;;6.80;94.73;100640.06;10172865;29;20521;-79
2023/02/21 06:30:37;;;;;;;112.72;37.78;;;;;;;6.50;96.38;100650.78;10176349;29;20040;-79
2023/02/21 06:35:40;;;;;;;143.88;46.38;;;;;;;6.67;94.72;100653.34;10169380;29;20503;-80
2023/02/21 06:40:45;;;;;;;117.55;36.17;;;;;;;6.54;95.33;100652.34;10176546;29;20100;-79
2023/02/21 06:45:48;;;;;;;124.47;44.28;;;;;;;6.50;95.83;100658.81;10172582;29;20036;-78
2023/02/21 06:50:51;;;;;;;143.88;48.80;;;;;;;6.96;93.87;100651.56;10174537;29;20032;-78
2023/02/21 06:55:55;;;;;;;90.60;29.75;;;;;;;6.36;95.95;100663.19;10210688;29;20051;-79
2023/02/21 07:00:57;;;;;;;109.35;39.55;;;;;;;6.82;94.17;100672.88;10192407;29;20049;-79
2023/02/21 07:06:00;;;;;;;98.13;36.38;;;;;;;6.83;93.92;100671.97;10180630;29;20048;-79
2023/02/21 07:11:06;;;;;;;91.90;35.08;;;;;;;6.60;94.97;100682.19;10180497;29;20108;-79
2023/02/21 07:16:10;;;;;;;104.47;37.42;;;;;;;6.88;93.07;100679.69;10177486;29;20064;-79
2023/02/21 07:21:14;;;;;;;101.45;36.75;;;;;;;6.75;93.82;100679.56;10195126;29;20082;-78
2023/02/21 07:26:19;;;;;;;92.22;32.95;;;;;;;6.84;93.33;100679.00;10178603;29;20048;-79
2023/02/21 07:31:22;;;;;;;85.22;32.35;;;;;;;6.82;93.17;100691.59;10174881;29;20044;-79
2023/02/21 07:36:25;;;;;;;88.90;34.08;;;;;;;6.86;91.93;100679.78;10174464;29;20076;-78
2023/02/21 07:41:30;;;;;;;62.22;23.40;;;;;;;6.54;93.77;100698.56;10173722;29;20059;-79
2023/02/21 07:46:33;;;;;;;83.72;33.58;;;;;;;6.99;91.69;100687.91;10178553;29;20407;-79
2023/02/21 07:51:36;;;;;;;94.00;37.20;;;;;;;7.32;90.64;100698.31;10180354;29;20048;-78
2023/02/21 07:56:44;;;;;;;71.97;27.67;;;;;;;7.02;92.04;100709.09;10180183;29;20044;-79
2023/02/21 08:01:47;;;;;;;80.72;29.88;;;;;;;6.84;93.14;100692.34;10173487;29;20055;-78
2023/02/21 08:06:50;;;;;;;77.00;32.78;;;;;;;6.94;92.92;100698.91;10180694;29;20088;-80
2023/02/21 08:11:54;;;;;;;71.35;24.65;;;;;;;6.66;94.36;100707.66;10179595;29;20048;-79
2023/02/21 08:16:57;;;;;;;67.03;22.30;;;;;;;6.48;95.04;100716.78;10179509;29;20067;-77
2023/02/21 08:21:59;;;;;;;67.53;26.30;;;;;;;6.80;93.94;100714.84;10178743;29;20404;-79
2023/02/21 08:27:04;;;;;;;64.03;25.25;;;;;;;6.80;94.94;100721.06;10147036;29;20060;-77
2023/02/21 08:32:07;;;;;;;75.95;30.45;;;;;;;6.91;93.36;100722.25;10129066;29;20082;-79
2023/02/21 08:37:16;;;;;;;77.70;30.27;;;;;;;6.88;94.40;100727.78;10155489;29;20059;-78
2023/02/21 08:42:21;;;;;;;66.95;26.05;;;;;;;6.68;94.44;100726.25;10160108;29;21212;-78
2023/02/21 08:47:24;;;;;;;79.03;28.25;;;;;;;7.02;93.03;100734.03;10150157;29;20108;-80
2023/02/21 08:52:27;;;;;;;71.70;29.48;;;;;;;7.25;91.88;100737.09;10149155;29;20048;-78
2023/02/21 08:57:33;;;;;;;73.57;30.55;;;;;;;7.06;92.46;100726.66;10146516;29;20050;-78
2023/02/21 09:02:38;;;;;;;41.75;18.60;;;;;;;7.05;92.42;100723.13;10144780;29;20071;-78
2023/02/21 09:07:42;;;;;;;66.90;28.42;;;;;;;7.30;90.97;100728.81;10161684;29;20044;-79
2023/02/21 09:12:47;;;;;;;58.53;23.33;;;;;;;6.98;92.59;100731.63;10171766;29;20143;-79
2023/02/21 09:17:49;;;;;;;47.40;20.42;;;;;;;7.16;92.02;100724.28;10172591;29;20079;-79
2023/02/21 09:22:52;;;;;;;49.97;22.88;;;;;;;7.16;91.39;100730.50;10143130;29;20055;-80
2023/02/21 09:27:59;;;;;;;35.83;16.17;;;;;;;6.88;92.75;100743.78;10119355;29;20047;-79
2023/02/21 09:33:02;;;;;;;52.72;23.00;;;;;;;7.39;90.48;100738.91;10177678;29;20055;-77
2023/02/21 09:38:06;;;;;;;49.10;20.77;;;;;;;7.19;90.22;100746.34;10185079;29;20102;-78
2023/02/21 09:43:15;;;;;;;47.75;20.42;;;;;;;7.37;88.76;100741.66;10150979;29;20072;-78
2023/02/21 09:48:21;;;;;;;49.00;25.52;;;;;;;7.30;89.39;100737.66;10142091;29;20663;-79
2023/02/21 09:53:27;;;;;;;44.78;19.95;;;;;;;6.99;91.05;100738.66;10158086;29;20133;-78
2023/02/21 09:58:31;;;;;;;31.20;14.98;;;;;;;7.47;88.55;100733.94;10169372;29;20059;-78
2023/02/21 10:03:45;;;;;;;42.72;19.40;;;;;;;7.24;89.49;100733.56;10097675;29;20094;-79
2023/02/21 10:08:57;;;;;;;49.55;24.40;;;;;;;7.73;87.99;100743.88;10104157;29;20369;-79
2023/02/21 10:14:14;;;;;;;37.10;16.25;;;;;;;7.56;87.07;100740.53;10116719;29;20045;-79
2023/02/21 10:19:21;;;;;;;45.15;20.33;;;;;;;7.58;88.26;100752.84;10104519;29;21174;-79
2023/02/21 10:24:27;;;;;;;40.28;20.05;;;;;;;7.62;87.66;100742.81;10115592;29;20055;-78
2023/02/21 10:29:42;;;;;;;45.47;22.48;;;;;;;7.40;90.00;100737.94;10102499;29;20108;-78
2023/02/21 10:34:48;;;;;;;46.75;19.45;;;;;;;7.34;89.45;100743.66;10105537;29;20052;-78
2023/02/21 10:39:55;;;;;;;51.30;22.30;;;;;;;7.43;89.32;100748.44;10120178;29;20512;-79
2023/02/21 10:45:00;;;;;;;49.35;21.20;;;;;;;7.32;89.49;100750.91;10102049;29;20183;-79
2023/02/21 10:50:06;;;;;;;53.10;23.17;;;;;;;7.57;88.92;100745.78;10097393;29;20107;-79
2023/02/21 10:55:17;;;;;;;56.70;24.63;;;;;;;7.81;87.74;100743.34;10102868;29;20056;-79
2023/02/21 11:00:38;;;;;;;58.05;23.95;;;;;;;7.44;88.42;100744.84;10135002;29;20055;-78
2023/02/21 11:05:41;;;;;;;42.65;19.10;;;;;;;7.63;87.95;100740.03;10146475;29;20052;-78
2023/02/21 11:10:44;;;;;;;61.03;29.42;;;;;;;7.83;86.94;100730.75;10113620;29;20139;-78
2023/02/21 11:16:07;;;;;;;61.47;25.75;;;;;;;7.79;87.63;100733.72;10121883;29;20048;-79
2023/02/21 11:21:14;;;;;;;50.20;19.92;;;;;;;7.66;87.27;100734.50;10110839;29;20643;-79
2023/02/21 11:26:17;;;;;;;62.22;28.98;;;;;;;8.26;86.11;100727.97;10125314;29;20048;-79
2023/02/21 11:31:27;;;;;;;61.42;28.40;;;;;;;8.11;85.93;100737.84;10115607;29;20190;-78
2023/02/21 11:36:34;;;;;;;50.08;22.20;;;;;;;8.06;85.36;100737.28;10130539;29;21649;-78
2023/02/21 11:41:44;;;;;;;61.08;28.13;;;;;;;8.31;85.81;100731.19;10102617;29;20060;-77
2023/02/21 11:46:53;;;;;;;62.75;27.75;;;;;;;8.26;85.24;100727.13;10097868;29;20495;-77
2023/02/21 11:52:00;;;;;;;57.25;23.88;;;;;;;8.19;84.84;100734.66;10135232;29;20144;-77
2023/02/21 11:57:09;;;;;;;55.30;26.63;;;;;;;8.08;85.15;100731.84;10126951;29;20058;-78
2023/02/21 12:02:50;;;;;;;55.88;27.10;;;;;;;8.15;85.13;100720.63;10131942;29;20059;-78
2023/02/21 12:08:11;;;;;;;41.42;19.98;;;;;;;7.84;86.11;100721.75;10133821;29;20056;-78
2023/02/21 12:13:24;;;;;;;63.92;27.65;;;;;;;8.14;85.50;100726.94;10130597;29;20056;-77
2023/02/21 12:18:40;;;;;;;78.80;34.78;;;;;;;8.02;85.63;100721.53;10109445;29;20219;-77
2023/02/21 12:23:53;;;;;;;75.20;29.85;;;;;;;7.86;86.31;100710.97;10131228;29;20158;-78
2023/02/21 12:29:08;;;;;;;;;;;;;;;7.61;87.24;100717.03;10091718;29;20095;-78
2023/02/21 12:34:26;;;;;;;68.88;24.35;;;;;;;7.66;87.56;100710.44;10124536;29;19923;-78
2023/02/21 12:39:49;;;;;;;75.25;29.13;;;;;;;7.94;86.60;100701.50;10135495;29;20048;-78
2023/02/21 12:45:02;;;;;;;73.65;32.15;;;;;;;7.91;86.88;100708.88;10097616;29;20864;-78
2023/02/21 12:50:13;;;;;;;68.30;28.48;;;;;;;7.76;87.90;100701.81;10108517;29;20538;-78
2023/02/21 12:55:22;;;;;;;68.07;29.33;;;;;;;8.14;85.81;100694.81;10149149;29;20191;-78
2023/02/21 13:00:27;;;;;;;76.70;30.15;;;;;;;8.06;85.69;100688.25;10156594;29;20732;-79
2023/02/21 13:05:38;;;;;;;74.60;28.65;;;;;;;7.76;86.42;100696.47;10116707;29;20052;-78
2023/02/21 13:10:52;;;;;;;79.35;26.92;;;;;;;7.62;87.47;100689.31;10121325;29;20057;-79
2023/02/21 13:15:56;;;;;;;77.57;32.22;;;;;;;7.58;87.91;100686.00;10164779;29;20070;-79
2023/02/21 13:21:07;;;;;;;62.83;25.50;;;;;;;7.72;87.59;100687.78;10166083;29;20114;-78
2023/02/21 13:26:26;;;;;;;78.15;29.20;;;;;;;7.16;90.87;100682.41;10163209;29;20134;-79
2023/02/21 13:31:37;;;;;;;65.28;21.40;;;;;;;7.26;90.56;100688.03;10133010;29;20203;-77
2023/02/21 13:36:44;;;;;;;76.00;27.98;;;;;;;7.44;89.74;100667.31;10096419;29;20051;-77
2023/02/21 13:41:51;;;;;;;73.80;28.63;;;;;;;7.51;89.22;100663.28;10112293;29;20139;-77
2023/02/21 13:47:05;;;;;;;75.65;28.27;;;;;;;7.72;88.38;100669.06;10145078;29;20664;-76
2023/02/21 13:52:46;;;;;;;73.07;28.83;;;;;;;7.78;87.66;100668.66;10146261;29;20064;-78
2023/02/21 13:58:11;;;;;;;77.95;27.38;;;;;;;7.86;87.39;100658.34;10143621;29;20043;-77
2023/02/21 14:03:31;;;;;;;77.60;28.88;;;;;;;7.45;88.56;100656.50;10145348;29;20056;-78
2023/02/21 14:08:41;;;;;;;65.10;24.45;;;;;;;7.33;89.25;100649.28;10131379;29;20200;-77
2023/02/21 14:13:50;;;;;;;75.57;29.85;;;;;;;7.54;88.92;100660.41;10150953;29;20055;-79
2023/02/21 14:18:59;;;;;;;60.47;24.45;;;;;;;6.99;91.10;100658.53;10175140;29;20071;-79
2023/02/21 14:24:05;;;;;;;62.00;26.02;;;;;;;6.92;91.73;100658.06;10155491;29;20708;-79
2023/02/21 14:29:30;;;;;;;63.30;25.33;;;;;;;6.89;91.82;100654.72;10095223;29;20224;-79
2023/02/21 14:34:37;;;;;;;63.60;23.70;;;;;;;7.27;90.19;100655.03;10094974;29;20424;-79
2023/02/21 14:39:43;;;;;;;68.13;26.13;;;;;;;7.35;89.97;100651.84;10096528;29;20571;-78
2023/02/21 14:45:04;;;;;;;66.43;26.25;;;;;;;7.47;88.67;100648.41;10100216;29;20139;-77
2023/02/21 14:50:23;;;;;;;64.55;24.52;;;;;;;7.38;88.51;100647.19;10133285;29;20162;-76
2023/02/21 14:55:51;;;;;;;59.50;24.20;;;;;;;7.40;88.34;100644.41;10140417;29;21314;-78
2023/02/21 15:01:05;;;;;;;56.92;24.10;;;;;;;7.22;88.96;100657.97;10101739;29;20056;-79
2023/02/21 15:06:36;;;;;;;48.33;20.02;;;;;;;7.36;88.02;100646.41;10101900;29;20158;-79
2023/02/21 15:11:43;;;;;;;55.75;22.85;;;;;;;7.35;87.86;100641.16;10119200;29;20209;-79
2023/02/21 15:16:48;;;;;;;48.20;20.98;;;;;;;7.04;88.32;100643.94;10103733;29;20084;-78
2023/02/21 15:22:07;;;;;;;60.80;22.98;;;;;;;7.39;87.29;100643.53;10096145;29;20441;-78
2023/02/21 15:27:11;;;;;;;58.95;25.27;;;;;;;7.42;87.61;100642.50;10130718;29;20052;-77
2023/02/21 15:32:15;;;;;;;54.25;23.88;;;;;;;7.52;87.13;100642.78;10130614;29;20052;-78
2023/02/21 15:37:22;;;;;;;57.85;22.90;;;;;;;7.43;87.02;100647.75;10114336;29;20056;-78
2023/02/21 15:42:26;;;;;;;53.95;23.35;;;;;;;7.53;86.56;100648.00;10093302;29;21379;-78
2023/02/21 15:47:33;;;;;;;58.20;24.92;;;;;;;7.71;85.88;100637.94;10096109;29;20131;-78
2023/02/21 15:52:39;;;;;;;52.60;21.88;;;;;;;7.52;86.27;100651.66;10097110;29;20165;-79
2023/02/21 15:57:42;;;;;;;53.63;23.80;;;;;;;7.11;88.20;100652.44;10094186;29;21288;-78
2023/02/21 16:02:46;;;;;;;53.22;23.02;;;;;;;7.66;85.69;100645.41;10091573;29;20048;-79
2023/02/21 16:07:52;;;;;;;55.65;24.25;;;;;;;7.67;85.54;100636.41;10100852;29;20064;-77
2023/02/21 16:12:58;;;;;;;53.10;22.27;;;;;;;7.46;86.80;100642.22;10114632;29;20472;-78
2023/02/21 16:18:06;;;;;;;49.67;23.80;;;;;;;7.72;85.63;100651.22;10104822;29;20509;-79
2023/02/21 16:23:23;;;;;;;55.45;24.73;;;;;;;7.64;86.10;100648.16;10111304;29;20056;-79
2023/02/21 16:28:26;;;;;;;55.90;25.08;;;;;;;7.83;85.00;100649.66;10132611;29;20051;-78
2023/02/21 16:33:31;;;;;;;58.38;25.10;;;;;;;7.65;85.88;100641.88;10147916;29;20051;-79
2023/02/21 16:38:34;;;;;;;56.88;23.95;;;;;;;7.67;85.68;100647.13;10140358;29;20082;-78
2023/02/21 16:43:37;;;;;;;53.80;23.00;;;;;;;7.54;85.80;100640.84;10148020;29;20185;-77
2023/02/21 16:48:41;;;;;;;54.88;23.70;;;;;;;7.83;84.73;100645.16;10163212;29;21257;-78
2023/02/21 16:53:45;;;;;;;55.50;25.20;;;;;;;7.65;85.71;100646.34;10160649;29;20476;-79
2023/02/21 16:58:54;;;;;;;49.15;21.52;;;;;;;7.53;85.45;100650.69;10149229;29;20123;-78
2023/02/21 17:04:00;;;;;;;50.38;24.73;;;;;;;7.53;85.81;100650.69;10149844;29;20131;-77
2023/02/21 17:09:03;;;;;;;52.30;22.95;;;;;;;7.73;84.50;100655.63;10147013;29;20123;-79
2023/02/21 17:14:06;;;;;;;47.80;21.63;;;;;;;7.81;84.18;100654.25;10160188;29;20083;-79
2023/02/21 17:19:11;;;;;;;59.58;25.08;;;;;;;7.67;84.65;100658.66;10135344;29;20048;-80
2023/02/21 17:24:15;;;;;;;53.08;24.58;;;;;;;7.82;84.01;100655.97;10150246;29;20048;-80
2023/02/21 17:29:18;;;;;;;50.88;23.42;;;;;;;7.75;84.24;100666.19;10151280;29;20059;-80
2023/02/21 17:34:22;;;;;;;50.63;22.13;;;;;;;7.74;84.15;100661.81;10137885;29;20137;-80
2023/02/21 17:39:25;;;;;;;54.30;26.05;;;;;;;7.56;85.04;100665.66;10143179;29;20075;-79
2023/02/21 17:44:28;;;;;;;56.05;25.38;;;;;;;7.70;84.21;100668.31;10130069;29;20056;-79
2023/02/21 17:49:32;;;;;;;57.47;24.98;;;;;;;7.82;83.81;100664.84;10116363;29;20095;-79
2023/02/21 17:54:35;;;;;;;55.97;25.80;;;;;;;7.74;83.83;100661.81;10150168;29;20064;-79
2023/02/21 17:59:39;;;;;;;52.65;25.02;;;;;;;7.72;84.09;100658.38;10158731;29;20047;-79
2023/02/21 18:04:44;;;;;;;55.47;23.80;;;;;;;7.72;84.12;100669.06;10171293;29;20138;-79
2023/02/21 18:09:47;;;;;;;58.00;26.30;;;;;;;7.78;83.93;100668.66;10192703;29;20055;-79
2023/02/21 18:14:52;;;;;;;57.78;26.23;;;;;;;7.83;83.82;100665.72;10176348;29;20981;-80
2023/02/21 18:19:56;;;;;;;61.65;27.00;;;;;;;7.87;83.74;100667.19;10164568;29;20138;-79
2023/02/21 18:24:59;;;;;;;62.38;28.23;;;;;;;7.80;83.83;100663.22;10158628;29;20048;-80
2023/02/21 18:30:02;;;;;;;61.33;28.05;;;;;;;7.80;83.85;100668.59;10137354;29;20055;-79
2023/02/21 18:35:06;;;;;;;64.97;28.58;;;;;;;7.78;83.99;100666.00;10153690;29;20072;-79
2023/02/21 18:40:10;;;;;;;64.95;29.30;;;;;;;7.77;83.82;100660.75;10159943;29;20066;-78
2023/02/21 18:45:13;;;;;;;65.55;29.52;;;;;;;7.82;83.69;100664.84;10137358;29;20048;-79
2023/02/21 18:50:17;;;;;;;65.95;28.70;;;;;;;7.90;83.97;100661.69;10122343;29;20056;-78
2023/02/21 18:55:20;;;;;;;65.85;29.15;;;;;;;7.97;84.01;100664.81;10137292;29;20516;-80
2023/02/21 19:00:23;;;;;;;65.50;29.70;;;;;;;8.02;83.84;100666.22;10138539;29;20227;-80
2023/02/21 19:05:28;;;;;;;69.43;30.65;;;;;;;8.04;83.86;100664.31;10117430;29;20048;-80
2023/02/21 19:10:31;;;;;;;72.18;32.28;;;;;;;8.05;83.83;100659.81;10124023;29;20131;-80
2023/02/21 19:15:34;;;;;;;70.53;31.13;;;;;;;8.06;83.96;100659.69;10115725;29;20135;-78
2023/02/21 19:20:39;;;;;;;72.22;32.33;;;;;;;8.08;83.74;100651.56;10147211;29;20051;-79
2023/02/21 19:25:42;;;;;;;65.13;29.45;;;;;;;8.06;83.99;100662.34;10158530;29;20060;-81
2023/02/21 19:30:45;;;;;;;63.50;29.35;;;;;;;8.09;83.91;100648.81;10126043;29;20060;-78
2023/02/21 19:35:49;;;;;;;69.45;31.17;;;;;;;8.10;83.96;100650.50;10128922;29;20081;-80
2023/02/21 19:40:52;;;;;;;68.35;33.97;;;;;;;8.12;84.03;100650.44;10121042;29;20046;-80
2023/02/21 19:45:55;;;;;;;72.38;31.17;;;;;;;8.12;84.07;100647.75;10102566;29;20049;-79
2023/02/21 19:50:59;;;;;;;75.70;34.92;;;;;;;8.09;83.80;100645.25;10110331;29;20043;-78
2023/02/21 19:56:02;;;;;;;71.82;32.28;;;;;;;8.04;83.87;100647.41;10106546;29;20055;-79
2023/02/21 20:01:05;;;;;;;75.05;30.95;;;;;;;8.06;83.99;100646.31;10129254;29;20195;-80
2023/02/21 20:06:09;;;;;;;75.40;33.90;;;;;;;8.08;83.94;100649.75;10132806;29;20080;-78
2023/02/21 20:11:12;;;;;;;71.13;32.35;;;;;;;8.04;84.11;100645.56;10133683;29;20057;-82
2023/02/21 20:16:19;;;;;;;71.78;32.65;;;;;;;8.07;84.05;100642.69;10125022;29;20063;-79
2023/02/21 20:21:25;;;;;;;74.00;32.75;;;;;;;8.06;84.00;100640.97;10143982;29;20048;-78
2023/02/21 20:26:28;;;;;;;68.75;30.85;;;;;;;8.06;84.12;100645.47;10150467;29;20048;-78
2023/02/21 20:31:34;;;;;;;68.03;30.33;;;;;;;8.05;83.96;100635.72;10144813;29;20400;-78
2023/02/21 20:36:41;;;;;;;66.93;29.75;;;;;;;8.04;84.10;100642.91;10158808;29;20179;-78
2023/02/21 20:41:44;;;;;;;67.22;29.83;;;;;;;8.06;84.06;100640.97;10150438;29;20087;-78
2023/02/21 20:46:47;;;;;;;65.63;28.75;;;;;;;8.06;83.98;100634.75;10138801;29;20060;-79
2023/02/21 20:51:51;;;;;;;66.88;29.75;;;;;;;8.05;84.02;100633.06;10164953;29;20095;-79
2023/02/21 20:56:56;;;;;;;65.80;28.73;;;;;;;8.01;84.13;100628.84;10179107;29;20059;-79
2023/02/21 21:02:00;;;;;;;68.70;28.92;;;;;;;7.97;84.21;100628.19;10126070;29;20044;-78
2023/02/21 21:07:07;;;;;;;73.32;30.52;;;;;;;7.95;84.18;100624.75;10152571;29;20087;-80
2023/02/21 21:12:12;;;;;;;62.15;27.75;;;;;;;7.90;84.12;100627.75;10123415;29;20052;-77
2023/02/21 21:17:17;;;;;;;66.25;28.38;;;;;;;7.87;84.15;100622.63;10146660;29;20059;-77
2023/02/21 21:22:23;;;;;;;67.40;28.67;;;;;;;7.81;84.27;100623.00;10129859;29;20064;-79
2023/02/21 21:27:26;;;;;;;71.50;29.27;;;;;;;7.82;84.22;100607.84;10128781;29;20123;-79
2023/02/21 21:32:29;;;;;;;75.35;30.40;;;;;;;7.80;84.35;100617.78;10130805;29;20118;-79
2023/02/21 21:37:35;;;;;;;71.55;29.35;;;;;;;7.79;84.45;100616.03;10169160;29;20063;-79
2023/02/21 21:42:37;;;;;;;69.30;30.85;;;;;;;7.80;84.50;100607.06;10142647;29;20122;-79
2023/02/21 21:47:40;;;;;;;70.93;29.45;;;;;;;7.82;84.46;100603.34;10128736;29;20044;-80
2023/02/21 21:52:50;;;;;;;77.93;30.60;;;;;;;7.83;84.60;100601.50;10126037;29;20115;-78
2023/02/21 21:57:54;;;;;;;78.82;29.33;;;;;;;7.80;84.59;100591.88;10168601;29;20056;-79
2023/02/21 22:02:59;;;;;;;76.28;31.35;;;;;;;7.83;84.79;100588.16;10156840;29;20059;-78
2023/02/21 22:08:03;;;;;;;78.47;30.60;;;;;;;7.84;84.47;100587.16;10158227;29;20055;-79
2023/02/21 22:13:12;;;;;;;68.75;28.27;;;;;;;7.83;84.46;100588.16;10160315;29;20059;-79
2023/02/21 22:18:17;;;;;;;69.97;29.20;;;;;;;7.81;84.63;100585.56;10166391;29;20055;-79
2023/02/21 22:23:23;;;;;;;72.93;29.70;;;;;;;7.84;84.41;100585.34;10149657;29;20520;-79
2023/02/21 22:28:26;;;;;;;69.55;29.30;;;;;;;7.83;84.31;100583.66;10127761;29;20043;-78
2023/02/21 22:33:29;;;;;;;64.18;28.70;;;;;;;7.84;84.38;100579.16;10162670;29;20044;-80
2023/02/21 22:38:55;;;;;;;78.88;32.22;;;;;;;7.87;84.29;100570.91;10202346;23;20056;-72
2023/02/21 22:43:59;;;;;;;80.32;33.63;;;;;;;7.88;84.24;100573.50;10156712;29;20058;-72
2023/02/21 22:49:02;;;;;;;74.28;31.17;;;;;;;7.84;84.20;100566.63;10142933;29;20095;-72
2023/02/21 22:54:06;;;;;;;69.35;30.60;;;;;;;7.86;84.48;100562.03;10163000;29;20116;-73
2023/02/21 22:59:11;;;;;;;70.30;29.88;;;;;;;7.88;84.22;100554.78;10177682;29;20044;-74
2023/02/21 23:04:23;;;;;;;72.00;30.85;;;;;;;7.86;84.25;100545.16;10157563;29;21111;-73
2023/02/21 23:09:35;;;;;;;70.07;29.35;;;;;;;7.85;84.16;100541.63;10153441;29;20545;-73
2023/02/21 23:14:40;;;;;;;71.15;29.15;;;;;;;7.85;84.32;100527.41;10136421;29;20044;-73
2023/02/21 23:19:43;;;;;;;75.72;30.80;;;;;;;7.83;84.35;100523.97;10156752;29;20052;-73
2023/02/21 23:24:47;;;;;;;71.85;28.13;;;;;;;7.81;84.26;100508.00;10157668;29;20052;-73
2023/02/21 23:29:52;;;;;;;77.88;29.90;;;;;;;7.80;84.36;100508.13;10157781;29;20048;-73
2023/02/21 23:34:56;;;;;;;77.43;30.17;;;;;;;7.81;84.14;100493.78;10150745;29;20501;-73
2023/02/21 23:40:00;;;;;;;76.40;33.08;;;;;;;7.79;84.16;100493.00;10190845;23;20123;-80
2023/02/21 23:45:06;;;;;;;79.10;31.98;;;;;;;7.73;84.28;100494.28;10193126;29;20088;-81
2023/02/21 23:50:16;;;;;;;81.80;31.65;;;;;;;7.69;84.38;100493.66;10194053;29;20127;-80
2023/02/21 23:55:23;;;;;;;81.85;30.63;;;;;;;7.73;84.45;100489.81;10180822;29;20072;-81
